Iona, ID

9:09 AM MDT on October 31, 2014 (GMT -0600)
old Ammon | Change Station
CLOSE
Current Station
Personal Weather Station
Location: Ammon, ID
Elevation: 4718 ft
Nearby Weather Stations
Active Advisory: Special Statement Active Notice: Record Report

Elev 4718 ft 43.47 °N, 111.97 °W | Updated 17 seconds ago

Clear
Clear
40.5 °F
Feels Like 40 °F
N
0.9
Wind Variable Wind from North
Gusts 4.0 mph

Today
High -- | Low -- °F
--% Chance of Precip.
Yesterday
High -- | Low -- °F
Precip. -- in
8:01 AM 6:19 PM
First Quarter, 56% visible
Pressure 29.99 in
Visibility 10.0 miles
Clouds Few 12000 ft
Windchill 40 °F
Dew Point 31 °F
Humidity 69%
Rainfall 0.00 in
Snow Depth Not available.
UV 0 out of 12
Pollen 2.80 out of 12
Air Quality Not available.
Flu Activity Not available.
METAR KIDA 311453Z 34004KT 10SM FEW120 04/00 A2999 RMK AO2 SLP154 T00390000 55007

More Conditions Fewer Conditions

Pressure 29.99 in
Visibility 10.0 miles
Clouds Few 12000 ft
Windchill 40 °F
Dew Point 31 °F
Humidity 69%
Rainfall 0.00 in
Snow Depth Not available.
UV 0 out of 12
Pollen 2.80 out of 12
Air Quality Not available.
Flu Activity Not available.
METAR KIDA 311453Z 34004KT 10SM FEW120 04/00 A2999 RMK AO2 SLP154 T00390000 55007

More Conditions Fewer Conditions

10-Day Weather Forecast

Almanac

Astronomy

Oct. 31, 2014 Rise Set
Actual Time
Civil Twilight
Nautical Twilight
Astronomical Twilight
Moon
Length of Visible Light
Length of Day
Tomorrow will be .
, % of the Moon is Illuminated

Today's Extremes

State Highs State Lows

Community

WunderPhotos

Upload Photos

1,766,626 photos uploaded!

WunderBlogs® & News

Nearby

Air Quality

  Air Quality AQ Index Pollutant
Not available.

Snow Depth

Station Depth Elevation

Earthquake Activity

City Distance Mag. Time & Date
Minimum magnitude displayed is 2.5.

Coastal Water Temperatures

Place Temperature

Nearby Weather Stations